createdAt,value
2022-12-17T00:04:46.202Z,11.20
2022-12-17T00:15:46.058Z,8.90
2022-12-17T00:26:45.963Z,11.30
2022-12-17T00:37:45.814Z,9.50
2022-12-17T00:48:45.678Z,7.90
2022-12-17T00:59:45.563Z,10.70
2022-12-17T01:10:45.453Z,9.30
2022-12-17T01:21:45.352Z,11.10
2022-12-17T01:32:45.218Z,6.10
2022-12-17T01:43:45.111Z,9.40
2022-12-17T01:54:44.962Z,9.50
2022-12-17T02:05:44.853Z,8.40
2022-12-17T02:16:44.763Z,10.10
2022-12-17T02:27:44.658Z,10.10
2022-12-17T02:38:44.509Z,9.50
2022-12-17T02:49:44.433Z,7.60
2022-12-17T03:00:44.273Z,7.90
2022-12-17T03:11:44.123Z,10.70
2022-12-17T03:22:43.998Z,8.80
2022-12-17T03:33:43.884Z,10.80
2022-12-17T03:44:43.769Z,8.70
2022-12-17T03:55:43.643Z,9.90
2022-12-17T04:06:43.524Z,6.90
2022-12-17T04:17:43.391Z,11.10
2022-12-17T04:28:43.289Z,7.90
2022-12-17T04:39:43.147Z,7.30
2022-12-17T04:50:43.028Z,6.10
2022-12-17T05:01:43.082Z,7.90
2022-12-17T05:12:42.784Z,8.30
2022-12-17T05:23:42.665Z,6.90
2022-12-17T05:34:42.564Z,8.30
2022-12-17T05:45:42.429Z,8.70
2022-12-17T05:56:42.306Z,9.30
2022-12-17T06:07:42.193Z,9.10
2022-12-17T06:18:42.072Z,8.30
2022-12-17T06:29:41.951Z,9.50
2022-12-17T06:40:41.847Z,3.40
2022-12-17T06:51:41.734Z,6.80
2022-12-17T07:02:41.718Z,5.10
2022-12-17T07:13:41.475Z,8.40
2022-12-17T07:24:41.368Z,6.60
2022-12-17T07:35:41.246Z,6.50
2022-12-17T07:46:41.137Z,7.20
2022-12-17T07:57:41.013Z,8.00
2022-12-17T08:08:40.964Z,8.10
2022-12-17T08:19:40.761Z,7.50
2022-12-17T08:30:40.737Z,12.20
2022-12-17T08:41:40.581Z,14.00
2022-12-17T08:52:40.419Z,7.10
2022-12-17T09:03:40.774Z,8.30
2022-12-17T09:14:40.181Z,8.70
2022-12-17T09:25:40.049Z,12.30
2022-12-17T09:36:39.930Z,12.70
2022-12-17T09:47:39.805Z,13.20
2022-12-17T09:58:39.686Z,12.60
2022-12-17T10:09:39.616Z,14.60
2022-12-17T10:20:39.485Z,17.20
2022-12-17T10:31:39.438Z,18.70
2022-12-17T10:42:39.201Z,21.80
2022-12-17T10:53:39.726Z,19.40
2022-12-17T11:04:39.004Z,20.10
2022-12-17T11:15:38.903Z,12.90
2022-12-17T11:26:38.800Z,17.20
2022-12-17T11:37:39.631Z,21.50
2022-12-17T11:48:39.097Z,20.90
2022-12-17T11:59:38.376Z,14.30
2022-12-17T12:10:38.280Z,25.60
2022-12-17T12:21:38.136Z,22.20
2022-12-17T12:32:38.021Z,27.60
2022-12-17T12:43:37.917Z,18.60
2022-12-17T12:54:37.755Z,19.80
2022-12-17T13:05:37.682Z,19.70
2022-12-17T13:16:37.592Z,17.70
2022-12-17T13:27:37.394Z,16.90
2022-12-17T13:38:37.735Z,22.70
2022-12-17T13:49:37.182Z,22.40
2022-12-17T14:00:37.191Z,13.90
2022-12-17T14:11:36.938Z,9.80
2022-12-17T14:22:36.805Z,13.60
2022-12-17T14:33:36.675Z,11.50
2022-12-17T14:44:36.621Z,16.10
2022-12-17T14:55:36.443Z,19.80
2022-12-17T15:06:36.398Z,17.50
2022-12-17T15:17:36.993Z,15.20
2022-12-17T15:28:36.432Z,16.60
2022-12-17T15:39:35.964Z,14.40
2022-12-17T15:50:35.831Z,20.10
2022-12-17T16:01:35.856Z,18.80
2022-12-17T16:12:35.618Z,17.40
2022-12-17T16:23:35.519Z,15.60
2022-12-17T16:34:35.398Z,16.00
2022-12-17T16:45:35.226Z,20.40
2022-12-17T16:56:39.674Z,14.30
2022-12-17T17:07:35.003Z,7.10
2022-12-17T17:18:35.866Z,11.20
2022-12-17T17:29:34.749Z,7.10
2022-12-17T17:40:34.646Z,9.60
2022-12-17T17:52:07.827Z,10.30
2022-12-17T18:02:34.565Z,14.20
2022-12-17T18:13:34.303Z,10.50
2022-12-17T18:24:34.154Z,5.80
2022-12-17T18:35:34.112Z,11.70
2022-12-17T18:46:34.015Z,12.30
2022-12-17T18:57:34.790Z,11.20
2022-12-17T19:08:33.715Z,13.40
2022-12-17T19:19:33.596Z,10.40
2022-12-17T19:30:33.453Z,12.90
2022-12-17T19:41:34.345Z,13.00
2022-12-17T19:52:33.203Z,8.90
2022-12-17T20:03:34.146Z,14.60
2022-12-17T20:14:32.963Z,15.50
2022-12-17T20:25:32.870Z,14.30
2022-12-17T20:36:32.749Z,15.00
2022-12-17T20:47:32.606Z,16.70
2022-12-17T20:58:32.501Z,8.40
2022-12-17T21:09:32.391Z,8.30
2022-12-17T21:20:32.306Z,6.60
2022-12-17T21:31:32.231Z,14.00
2022-12-17T21:42:32.018Z,10.90
2022-12-17T21:53:31.992Z,14.60
